sensor_id;sensor_type;location;lat;lon;timestamp;P1;durP1;ratioP1;P2;durP2;ratioP2
47778;SDS011;33538;48.432;11.350;2023-06-04T00:00:00;3.42;;;2.10;;
47778;SDS011;33538;48.432;11.350;2023-06-04T00:02:28;3.80;;;2.47;;
47778;SDS011;33538;48.432;11.350;2023-06-04T00:04:55;7.28;;;2.10;;
47778;SDS011;33538;48.432;11.350;2023-06-04T00:07:23;5.00;;;2.60;;
47778;SDS011;33538;48.432;11.350;2023-06-04T00:09:52;4.25;;;2.38;;
47778;SDS011;33538;48.432;11.350;2023-06-04T00:12:19;3.40;;;2.25;;
47778;SDS011;33538;48.432;11.350;2023-06-04T00:14:46;3.55;;;2.40;;
47778;SDS011;33538;48.432;11.350;2023-06-04T00:17:12;4.30;;;2.70;;
47778;SDS011;33538;48.432;11.350;2023-06-04T00:19:39;3.05;;;2.13;;
47778;SDS011;33538;48.432;11.350;2023-06-04T00:22:06;5.20;;;2.63;;
47778;SDS011;33538;48.432;11.350;2023-06-04T00:24:36;2.70;;;1.83;;
47778;SDS011;33538;48.432;11.350;2023-06-04T00:27:04;4.05;;;2.50;;
47778;SDS011;33538;48.432;11.350;2023-06-04T00:29:32;4.38;;;2.53;;
47778;SDS011;33538;48.432;11.350;2023-06-04T00:31:59;3.75;;;2.40;;
47778;SDS011;33538;48.432;11.350;2023-06-04T00:34:26;3.33;;;2.25;;
47778;SDS011;33538;48.432;11.350;2023-06-04T00:36:53;5.25;;;2.60;;
47778;SDS011;33538;48.432;11.350;2023-06-04T00:39:19;4.22;;;2.65;;
47778;SDS011;33538;48.432;11.350;2023-06-04T00:41:47;7.38;;;2.70;;
47778;SDS011;33538;48.432;11.350;2023-06-04T00:44:14;4.93;;;2.70;;
47778;SDS011;33538;48.432;11.350;2023-06-04T00:46:41;4.28;;;2.50;;
47778;SDS011;33538;48.432;11.350;2023-06-04T00:49:08;4.30;;;2.53;;
47778;SDS011;33538;48.432;11.350;2023-06-04T00:51:35;3.50;;;2.53;;
47778;SDS011;33538;48.432;11.350;2023-06-04T00:54:02;3.13;;;2.17;;
47778;SDS011;33538;48.432;11.350;2023-06-04T00:56:30;4.30;;;2.40;;
47778;SDS011;33538;48.432;11.350;2023-06-04T00:58:58;3.58;;;2.63;;
47778;SDS011;33538;48.432;11.350;2023-06-04T01:01:26;5.00;;;2.45;;
47778;SDS011;33538;48.432;11.350;2023-06-04T01:04:00;3.05;;;2.53;;
47778;SDS011;33538;48.432;11.350;2023-06-04T01:06:30;4.47;;;2.45;;
47778;SDS011;33538;48.432;11.350;2023-06-04T01:09:02;4.90;;;2.35;;
47778;SDS011;33538;48.432;11.350;2023-06-04T01:11:31;4.05;;;2.45;;
47778;SDS011;33538;48.432;11.350;2023-06-04T01:13:59;2.63;;;2.00;;
47778;SDS011;33538;48.432;11.350;2023-06-04T01:16:27;7.53;;;2.63;;
47778;SDS011;33538;48.432;11.350;2023-06-04T01:18:58;3.40;;;2.47;;
47778;SDS011;33538;48.432;11.350;2023-06-04T01:21:28;4.38;;;2.42;;
47778;SDS011;33538;48.432;11.350;2023-06-04T01:24:00;7.20;;;2.97;;
47778;SDS011;33538;48.432;11.350;2023-06-04T01:26:31;7.65;;;2.40;;
47778;SDS011;33538;48.432;11.350;2023-06-04T01:28:58;5.63;;;2.78;;
47778;SDS011;33538;48.432;11.350;2023-06-04T01:31:27;4.70;;;2.60;;
47778;SDS011;33538;48.432;11.350;2023-06-04T01:33:55;4.00;;;2.50;;
47778;SDS011;33538;48.432;11.350;2023-06-04T01:36:22;2.88;;;2.30;;
47778;SDS011;33538;48.432;11.350;2023-06-04T01:38:49;3.70;;;2.20;;
47778;SDS011;33538;48.432;11.350;2023-06-04T01:41:16;3.17;;;2.38;;
47778;SDS011;33538;48.432;11.350;2023-06-04T01:43:43;3.38;;;2.22;;
47778;SDS011;33538;48.432;11.350;2023-06-04T01:46:11;4.28;;;2.45;;
47778;SDS011;33538;48.432;11.350;2023-06-04T01:48:38;4.72;;;2.17;;
47778;SDS011;33538;48.432;11.350;2023-06-04T01:51:05;3.90;;;2.38;;
47778;SDS011;33538;48.432;11.350;2023-06-04T01:53:32;2.88;;;2.13;;
47778;SDS011;33538;48.432;11.350;2023-06-04T01:55:59;4.03;;;2.40;;
47778;SDS011;33538;48.432;11.350;2023-06-04T01:58:26;2.95;;;2.13;;
47778;SDS011;33538;48.432;11.350;2023-06-04T02:00:53;2.67;;;1.98;;
47778;SDS011;33538;48.432;11.350;2023-06-04T02:03:21;4.18;;;2.10;;
47778;SDS011;33538;48.432;11.350;2023-06-04T02:05:49;2.63;;;2.08;;
47778;SDS011;33538;48.432;11.350;2023-06-04T02:08:15;3.10;;;2.40;;
47778;SDS011;33538;48.432;11.350;2023-06-04T02:10:42;2.78;;;2.05;;
47778;SDS011;33538;48.432;11.350;2023-06-04T02:13:09;4.55;;;2.55;;
47778;SDS011;33538;48.432;11.350;2023-06-04T02:15:36;3.25;;;2.30;;
47778;SDS011;33538;48.432;11.350;2023-06-04T02:18:11;4.13;;;2.55;;
47778;SDS011;33538;48.432;11.350;2023-06-04T02:20:40;2.95;;;1.98;;
47778;SDS011;33538;48.432;11.350;2023-06-04T02:23:07;6.25;;;2.72;;
47778;SDS011;33538;48.432;11.350;2023-06-04T02:25:34;6.05;;;3.33;;
47778;SDS011;33538;48.432;11.350;2023-06-04T02:28:01;5.53;;;2.13;;
47778;SDS011;33538;48.432;11.350;2023-06-04T02:30:28;4.43;;;2.53;;
47778;SDS011;33538;48.432;11.350;2023-06-04T02:32:55;4.40;;;2.20;;
47778;SDS011;33538;48.432;11.350;2023-06-04T02:35:21;3.97;;;2.72;;
47778;SDS011;33538;48.432;11.350;2023-06-04T02:37:50;3.90;;;2.67;;
47778;SDS011;33538;48.432;11.350;2023-06-04T02:40:16;3.60;;;2.60;;
47778;SDS011;33538;48.432;11.350;2023-06-04T02:42:43;6.47;;;2.80;;
47778;SDS011;33538;48.432;11.350;2023-06-04T02:45:10;3.70;;;2.58;;
47778;SDS011;33538;48.432;11.350;2023-06-04T02:47:37;4.90;;;2.30;;
47778;SDS011;33538;48.432;11.350;2023-06-04T02:50:05;4.18;;;2.47;;
47778;SDS011;33538;48.432;11.350;2023-06-04T02:52:32;3.55;;;2.80;;
47778;SDS011;33538;48.432;11.350;2023-06-04T02:55:00;3.58;;;2.55;;
47778;SDS011;33538;48.432;11.350;2023-06-04T02:57:27;4.18;;;2.70;;
47778;SDS011;33538;48.432;11.350;2023-06-04T02:59:54;3.92;;;2.78;;
47778;SDS011;33538;48.432;11.350;2023-06-04T03:02:21;3.40;;;2.42;;
47778;SDS011;33538;48.432;11.350;2023-06-04T03:04:48;3.78;;;2.30;;
47778;SDS011;33538;48.432;11.350;2023-06-04T03:07:14;3.03;;;2.45;;
47778;SDS011;33538;48.432;11.350;2023-06-04T03:09:41;3.28;;;2.15;;
47778;SDS011;33538;48.432;11.350;2023-06-04T03:12:10;3.72;;;2.50;;
47778;SDS011;33538;48.432;11.350;2023-06-04T03:14:36;5.68;;;2.78;;
47778;SDS011;33538;48.432;11.350;2023-06-04T03:17:03;3.20;;;2.45;;
47778;SDS011;33538;48.432;11.350;2023-06-04T03:19:31;3.65;;;2.30;;
47778;SDS011;33538;48.432;11.350;2023-06-04T03:21:57;4.07;;;2.53;;
47778;SDS011;33538;48.432;11.350;2023-06-04T03:24:24;3.22;;;2.10;;
47778;SDS011;33538;48.432;11.350;2023-06-04T03:26:51;5.25;;;2.47;;
47778;SDS011;33538;48.432;11.350;2023-06-04T03:29:19;3.78;;;2.47;;
47778;SDS011;33538;48.432;11.350;2023-06-04T03:31:46;3.47;;;2.47;;
47778;SDS011;33538;48.432;11.350;2023-06-04T03:34:13;3.45;;;2.30;;
47778;SDS011;33538;48.432;11.350;2023-06-04T03:36:39;3.03;;;2.20;;
47778;SDS011;33538;48.432;11.350;2023-06-04T03:39:06;4.35;;;2.30;;
47778;SDS011;33538;48.432;11.350;2023-06-04T03:41:33;3.65;;;2.33;;
47778;SDS011;33538;48.432;11.350;2023-06-04T03:44:00;2.70;;;2.03;;
47778;SDS011;33538;48.432;11.350;2023-06-04T03:46:28;2.95;;;2.22;;
47778;SDS011;33538;48.432;11.350;2023-06-04T03:48:55;3.60;;;2.15;;
47778;SDS011;33538;48.432;11.350;2023-06-04T03:51:21;3.60;;;2.38;;
47778;SDS011;33538;48.432;11.350;2023-06-04T03:53:48;6.15;;;2.42;;
47778;SDS011;33538;48.432;11.350;2023-06-04T03:56:15;4.28;;;2.75;;
47778;SDS011;33538;48.432;11.350;2023-06-04T03:58:42;4.60;;;2.40;;
47778;SDS011;33538;48.432;11.350;2023-06-04T04:01:08;3.70;;;2.50;;
47778;SDS011;33538;48.432;11.350;2023-06-04T04:03:37;4.63;;;2.38;;
47778;SDS011;33538;48.432;11.350;2023-06-04T04:06:03;4.47;;;2.60;;
47778;SDS011;33538;48.432;11.350;2023-06-04T04:08:30;6.93;;;2.72;;
47778;SDS011;33538;48.432;11.350;2023-06-04T04:10:57;4.57;;;2.75;;
47778;SDS011;33538;48.432;11.350;2023-06-04T04:13:24;4.05;;;2.85;;
47778;SDS011;33538;48.432;11.350;2023-06-04T04:15:51;4.63;;;2.55;;
47778;SDS011;33538;48.432;11.350;2023-06-04T04:18:18;3.42;;;2.40;;
47778;SDS011;33538;48.432;11.350;2023-06-04T04:20:46;3.53;;;2.40;;
47778;SDS011;33538;48.432;11.350;2023-06-04T04:23:13;4.05;;;2.85;;
47778;SDS011;33538;48.432;11.350;2023-06-04T04:25:40;4.22;;;2.30;;
47778;SDS011;33538;48.432;11.350;2023-06-04T04:28:06;3.97;;;2.53;;
47778;SDS011;33538;48.432;11.350;2023-06-04T04:30:33;4.07;;;2.33;;
47778;SDS011;33538;48.432;11.350;2023-06-04T04:33:00;6.38;;;2.75;;
47778;SDS011;33538;48.432;11.350;2023-06-04T04:35:27;4.18;;;2.83;;
47778;SDS011;33538;48.432;11.350;2023-06-04T04:37:55;6.50;;;2.83;;
47778;SDS011;33538;48.432;11.350;2023-06-04T04:40:22;5.40;;;3.08;;
47778;SDS011;33538;48.432;11.350;2023-06-04T04:42:49;7.43;;;2.65;;
47778;SDS011;33538;48.432;11.350;2023-06-04T04:45:16;4.20;;;2.60;;
47778;SDS011;33538;48.432;11.350;2023-06-04T04:47:43;3.63;;;2.40;;
47778;SDS011;33538;48.432;11.350;2023-06-04T04:50:10;3.15;;;2.00;;
47778;SDS011;33538;48.432;11.350;2023-06-04T04:52:37;4.53;;;2.33;;
47778;SDS011;33538;48.432;11.350;2023-06-04T04:55:06;4.00;;;2.20;;
47778;SDS011;33538;48.432;11.350;2023-06-04T04:57:33;4.88;;;2.70;;
47778;SDS011;33538;48.432;11.350;2023-06-04T05:00:00;5.32;;;2.58;;
47778;SDS011;33538;48.432;11.350;2023-06-04T05:02:27;5.50;;;1.92;;
47778;SDS011;33538;48.432;11.350;2023-06-04T05:04:54;3.08;;;1.98;;
47778;SDS011;33538;48.432;11.350;2023-06-04T05:07:21;3.92;;;2.10;;
47778;SDS011;33538;48.432;11.350;2023-06-04T05:09:47;4.07;;;2.13;;
47778;SDS011;33538;48.432;11.350;2023-06-04T05:12:16;5.45;;;2.63;;
47778;SDS011;33538;48.432;11.350;2023-06-04T05:14:42;2.03;;;1.83;;
47778;SDS011;33538;48.432;11.350;2023-06-04T05:17:09;5.90;;;2.30;;
47778;SDS011;33538;48.432;11.350;2023-06-04T05:19:36;8.18;;;2.13;;
47778;SDS011;33538;48.432;11.350;2023-06-04T05:22:03;3.45;;;1.65;;
47778;SDS011;33538;48.432;11.350;2023-06-04T05:24:30;3.65;;;2.00;;
47778;SDS011;33538;48.432;11.350;2023-06-04T05:26:57;4.18;;;2.03;;
47778;SDS011;33538;48.432;11.350;2023-06-04T05:29:25;4.63;;;2.15;;
47778;SDS011;33538;48.432;11.350;2023-06-04T05:31:52;2.97;;;1.83;;
47778;SDS011;33538;48.432;11.350;2023-06-04T05:34:19;5.00;;;1.90;;
47778;SDS011;33538;48.432;11.350;2023-06-04T05:36:45;2.05;;;1.45;;
47778;SDS011;33538;48.432;11.350;2023-06-04T05:39:12;3.30;;;1.83;;
47778;SDS011;33538;48.432;11.350;2023-06-04T05:41:39;3.67;;;1.92;;
47778;SDS011;33538;48.432;11.350;2023-06-04T05:44:06;5.28;;;2.40;;
47778;SDS011;33538;48.432;11.350;2023-06-04T05:46:34;2.83;;;1.70;;
47778;SDS011;33538;48.432;11.350;2023-06-04T05:49:01;3.20;;;2.00;;
47778;SDS011;33538;48.432;11.350;2023-06-04T05:51:28;3.42;;;2.20;;
47778;SDS011;33538;48.432;11.350;2023-06-04T05:53:54;5.35;;;2.55;;
47778;SDS011;33538;48.432;11.350;2023-06-04T05:56:21;4.00;;;2.03;;
47778;SDS011;33538;48.432;11.350;2023-06-04T05:58:50;3.53;;;1.95;;
47778;SDS011;33538;48.432;11.350;2023-06-04T06:01:17;2.75;;;1.95;;
47778;SDS011;33538;48.432;11.350;2023-06-04T06:03:45;4.95;;;2.05;;
47778;SDS011;33538;48.432;11.350;2023-06-04T06:06:12;4.13;;;1.80;;
47778;SDS011;33538;48.432;11.350;2023-06-04T06:08:39;4.40;;;1.98;;
47778;SDS011;33538;48.432;11.350;2023-06-04T06:11:06;3.22;;;2.08;;
47778;SDS011;33538;48.432;11.350;2023-06-04T06:13:36;3.60;;;1.90;;
47778;SDS011;33538;48.432;11.350;2023-06-04T06:16:03;2.42;;;1.45;;
47778;SDS011;33538;48.432;11.350;2023-06-04T06:18:30;3.10;;;1.90;;
47778;SDS011;33538;48.432;11.350;2023-06-04T06:20:58;3.15;;;2.10;;
47778;SDS011;33538;48.432;11.350;2023-06-04T06:23:24;2.22;;;1.77;;
47778;SDS011;33538;48.432;11.350;2023-06-04T06:25:51;3.05;;;1.80;;
47778;SDS011;33538;48.432;11.350;2023-06-04T06:28:18;4.20;;;1.95;;
47778;SDS011;33538;48.432;11.350;2023-06-04T06:30:45;3.55;;;1.73;;
47778;SDS011;33538;48.432;11.350;2023-06-04T06:33:12;1.40;;;1.27;;
47778;SDS011;33538;48.432;11.350;2023-06-04T06:35:39;5.57;;;2.00;;
47778;SDS011;33538;48.432;11.350;2023-06-04T06:38:07;2.70;;;1.55;;
47778;SDS011;33538;48.432;11.350;2023-06-04T06:40:34;4.70;;;1.83;;
47778;SDS011;33538;48.432;11.350;2023-06-04T06:43:01;3.25;;;1.92;;
47778;SDS011;33538;48.432;11.350;2023-06-04T06:45:27;2.05;;;1.45;;
47778;SDS011;33538;48.432;11.350;2023-06-04T06:47:54;2.15;;;1.75;;
47778;SDS011;33538;48.432;11.350;2023-06-04T06:50:21;3.35;;;2.00;;
47778;SDS011;33538;48.432;11.350;2023-06-04T06:52:48;4.30;;;2.10;;
47778;SDS011;33538;48.432;11.350;2023-06-04T06:55:16;3.78;;;1.70;;
47778;SDS011;33538;48.432;11.350;2023-06-04T06:57:43;2.22;;;1.63;;
47778;SDS011;33538;48.432;11.350;2023-06-04T07:00:11;4.07;;;1.90;;
47778;SDS011;33538;48.432;11.350;2023-06-04T07:02:38;3.42;;;1.55;;
47778;SDS011;33538;48.432;11.350;2023-06-04T07:05:05;3.28;;;1.38;;
47778;SDS011;33538;48.432;11.350;2023-06-04T07:07:32;2.28;;;1.45;;
47778;SDS011;33538;48.432;11.350;2023-06-04T07:09:59;2.88;;;1.77;;
47778;SDS011;33538;48.432;11.350;2023-06-04T07:12:27;2.70;;;1.90;;
47778;SDS011;33538;48.432;11.350;2023-06-04T07:14:54;3.60;;;1.90;;
47778;SDS011;33538;48.432;11.350;2023-06-04T07:17:21;6.00;;;2.20;;
47778;SDS011;33538;48.432;11.350;2023-06-04T07:19:48;2.25;;;1.50;;
47778;SDS011;33538;48.432;11.350;2023-06-04T07:22:14;6.90;;;1.90;;
47778;SDS011;33538;48.432;11.350;2023-06-04T07:24:41;2.58;;;1.45;;
47778;SDS011;33538;48.432;11.350;2023-06-04T07:27:11;4.93;;;1.80;;
47778;SDS011;33538;48.432;11.350;2023-06-04T07:29:40;3.28;;;1.90;;
47778;SDS011;33538;48.432;11.350;2023-06-04T07:32:09;4.32;;;1.67;;
47778;SDS011;33538;48.432;11.350;2023-06-04T07:34:37;1.45;;;1.30;;
47778;SDS011;33538;48.432;11.350;2023-06-04T07:37:04;2.97;;;2.03;;
47778;SDS011;33538;48.432;11.350;2023-06-04T07:39:31;3.80;;;1.67;;
47778;SDS011;33538;48.432;11.350;2023-06-04T07:41:58;5.15;;;1.60;;
47778;SDS011;33538;48.432;11.350;2023-06-04T07:44:25;4.18;;;1.77;;
47778;SDS011;33538;48.432;11.350;2023-06-04T07:46:53;6.85;;;1.90;;
47778;SDS011;33538;48.432;11.350;2023-06-04T07:49:20;2.47;;;1.70;;
47778;SDS011;33538;48.432;11.350;2023-06-04T07:51:46;4.18;;;1.98;;
47778;SDS011;33538;48.432;11.350;2023-06-04T07:54:13;4.57;;;1.50;;
47778;SDS011;33538;48.432;11.350;2023-06-04T07:56:40;2.45;;;1.50;;
47778;SDS011;33538;48.432;11.350;2023-06-04T07:59:07;3.67;;;1.83;;
47778;SDS011;33538;48.432;11.350;2023-06-04T08:01:34;2.25;;;1.40;;
47778;SDS011;33538;48.432;11.350;2023-06-04T08:04:02;3.33;;;1.92;;
47778;SDS011;33538;48.432;11.350;2023-06-04T08:06:29;2.20;;;1.67;;
47778;SDS011;33538;48.432;11.350;2023-06-04T08:08:56;5.38;;;2.25;;
47778;SDS011;33538;48.432;11.350;2023-06-04T08:11:23;5.25;;;2.08;;
47778;SDS011;33538;48.432;11.350;2023-06-04T08:13:49;3.97;;;1.75;;
47778;SDS011;33538;48.432;11.350;2023-06-04T08:16:16;6.90;;;1.70;;
47778;SDS011;33538;48.432;11.350;2023-06-04T08:18:43;2.45;;;1.55;;
47778;SDS011;33538;48.432;11.350;2023-06-04T08:21:11;4.50;;;1.75;;
47778;SDS011;33538;48.432;11.350;2023-06-04T08:23:38;4.70;;;1.60;;
47778;SDS011;33538;48.432;11.350;2023-06-04T08:26:05;2.58;;;1.77;;
47778;SDS011;33538;48.432;11.350;2023-06-04T08:28:34;2.97;;;1.67;;
47778;SDS011;33538;48.432;11.350;2023-06-04T08:31:01;2.08;;;1.60;;
47778;SDS011;33538;48.432;11.350;2023-06-04T08:33:28;3.28;;;1.83;;
47778;SDS011;33538;48.432;11.350;2023-06-04T08:35:54;9.55;;;2.20;;
47778;SDS011;33538;48.432;11.350;2023-06-04T08:38:22;4.85;;;1.80;;
47778;SDS011;33538;48.432;11.350;2023-06-04T08:40:50;3.92;;;2.17;;
47778;SDS011;33538;48.432;11.350;2023-06-04T08:43:19;4.20;;;1.67;;
47778;SDS011;33538;48.432;11.350;2023-06-04T08:45:48;3.55;;;2.00;;
47778;SDS011;33538;48.432;11.350;2023-06-04T08:48:16;3.95;;;1.83;;
47778;SDS011;33538;48.432;11.350;2023-06-04T08:50:46;5.63;;;2.20;;
47778;SDS011;33538;48.432;11.350;2023-06-04T08:53:15;2.97;;;1.90;;
47778;SDS011;33538;48.432;11.350;2023-06-04T08:55:43;4.15;;;2.40;;
47778;SDS011;33538;48.432;11.350;2023-06-04T08:58:10;3.33;;;2.00;;
47778;SDS011;33538;48.432;11.350;2023-06-04T09:00:37;3.22;;;2.10;;
47778;SDS011;33538;48.432;11.350;2023-06-04T09:03:04;3.17;;;2.10;;
47778;SDS011;33538;48.432;11.350;2023-06-04T09:05:32;3.80;;;2.13;;
47778;SDS011;33538;48.432;11.350;2023-06-04T09:08:00;3.05;;;2.20;;
47778;SDS011;33538;48.432;11.350;2023-06-04T09:10:30;3.05;;;1.80;;
47778;SDS011;33538;48.432;11.350;2023-06-04T09:13:00;4.65;;;1.98;;
47778;SDS011;33538;48.432;11.350;2023-06-04T09:15:28;3.75;;;1.83;;
47778;SDS011;33538;48.432;11.350;2023-06-04T09:17:55;1.88;;;1.50;;
47778;SDS011;33538;48.432;11.350;2023-06-04T09:20:22;4.40;;;1.80;;
47778;SDS011;33538;48.432;11.350;2023-06-04T09:22:50;3.15;;;1.85;;
47778;SDS011;33538;48.432;11.350;2023-06-04T09:25:20;3.80;;;1.90;;
47778;SDS011;33538;48.432;11.350;2023-06-04T09:27:48;6.45;;;2.00;;
47778;SDS011;33538;48.432;11.350;2023-06-04T09:30:16;2.28;;;1.70;;
47778;SDS011;33538;48.432;11.350;2023-06-04T09:32:43;2.53;;;1.90;;
47778;SDS011;33538;48.432;11.350;2023-06-04T09:35:11;5.97;;;2.05;;
47778;SDS011;33538;48.432;11.350;2023-06-04T09:37:39;4.07;;;1.98;;
47778;SDS011;33538;48.432;11.350;2023-06-04T09:40:06;2.63;;;1.60;;
47778;SDS011;33538;48.432;11.350;2023-06-04T09:42:43;3.67;;;1.75;;
47778;SDS011;33538;48.432;11.350;2023-06-04T09:45:11;3.83;;;2.10;;
47778;SDS011;33538;48.432;11.350;2023-06-04T09:47:40;2.70;;;1.83;;
47778;SDS011;33538;48.432;11.350;2023-06-04T09:50:08;4.18;;;1.85;;
47778;SDS011;33538;48.432;11.350;2023-06-04T09:52:36;4.60;;;2.33;;
47778;SDS011;33538;48.432;11.350;2023-06-04T09:55:03;3.42;;;1.95;;
47778;SDS011;33538;48.432;11.350;2023-06-04T09:57:41;2.65;;;1.75;;
47778;SDS011;33538;48.432;11.350;2023-06-04T10:00:12;2.63;;;1.73;;
47778;SDS011;33538;48.432;11.350;2023-06-04T10:02:44;2.28;;;1.52;;
47778;SDS011;33538;48.432;11.350;2023-06-04T10:05:13;1.90;;;1.60;;
47778;SDS011;33538;48.432;11.350;2023-06-04T10:07:40;2.38;;;1.65;;
47778;SDS011;33538;48.432;11.350;2023-06-04T10:10:10;2.75;;;1.45;;
47778;SDS011;33538;48.432;11.350;2023-06-04T10:12:40;3.28;;;1.98;;
47778;SDS011;33538;48.432;11.350;2023-06-04T10:15:10;2.95;;;1.80;;
47778;SDS011;33538;48.432;11.350;2023-06-04T10:17:38;5.47;;;2.28;;
47778;SDS011;33538;48.432;11.350;2023-06-04T10:20:07;7.35;;;1.85;;
47778;SDS011;33538;48.432;11.350;2023-06-04T10:22:35;3.60;;;2.20;;
47778;SDS011;33538;48.432;11.350;2023-06-04T10:25:05;3.33;;;1.90;;
47778;SDS011;33538;48.432;11.350;2023-06-04T10:27:32;2.67;;;1.88;;
47778;SDS011;33538;48.432;11.350;2023-06-04T10:29:59;2.90;;;2.10;;
47778;SDS011;33538;48.432;11.350;2023-06-04T10:32:26;5.75;;;2.47;;
47778;SDS011;33538;48.432;11.350;2023-06-04T10:34:54;3.75;;;2.15;;
47778;SDS011;33538;48.432;11.350;2023-06-04T10:37:22;4.80;;;2.08;;
47778;SDS011;33538;48.432;11.350;2023-06-04T10:39:51;2.40;;;1.80;;
47778;SDS011;33538;48.432;11.350;2023-06-04T10:42:18;3.75;;;2.22;;
47778;SDS011;33538;48.432;11.350;2023-06-04T10:44:45;4.68;;;2.47;;
47778;SDS011;33538;48.432;11.350;2023-06-04T10:47:20;3.10;;;1.90;;
47778;SDS011;33538;48.432;11.350;2023-06-04T10:49:48;2.53;;;1.95;;
47778;SDS011;33538;48.432;11.350;2023-06-04T10:52:15;3.45;;;2.08;;
47778;SDS011;33538;48.432;11.350;2023-06-04T10:54:44;3.33;;;2.17;;
47778;SDS011;33538;48.432;11.350;2023-06-04T10:57:12;6.10;;;2.35;;
47778;SDS011;33538;48.432;11.350;2023-06-04T10:59:39;5.97;;;2.22;;
47778;SDS011;33538;48.432;11.350;2023-06-04T11:02:06;4.80;;;2.35;;
47778;SDS011;33538;48.432;11.350;2023-06-04T11:04:35;3.35;;;2.20;;
47778;SDS011;33538;48.432;11.350;2023-06-04T11:07:02;3.47;;;2.20;;
47778;SDS011;33538;48.432;11.350;2023-06-04T11:09:30;4.28;;;2.25;;
47778;SDS011;33538;48.432;11.350;2023-06-04T11:12:01;3.45;;;2.22;;
47778;SDS011;33538;48.432;11.350;2023-06-04T11:14:30;4.15;;;2.53;;
47778;SDS011;33538;48.432;11.350;2023-06-04T11:16:57;3.92;;;2.30;;
47778;SDS011;33538;48.432;11.350;2023-06-04T11:19:35;5.15;;;2.53;;
47778;SDS011;33538;48.432;11.350;2023-06-04T11:22:03;6.63;;;2.30;;
47778;SDS011;33538;48.432;11.350;2023-06-04T11:24:30;3.50;;;2.10;;
47778;SDS011;33538;48.432;11.350;2023-06-04T11:26:58;3.45;;;2.33;;
47778;SDS011;33538;48.432;11.350;2023-06-04T11:29:42;3.72;;;2.10;;
47778;SDS011;33538;48.432;11.350;2023-06-04T11:32:09;5.22;;;2.40;;
47778;SDS011;33538;48.432;11.350;2023-06-04T11:34:46;8.35;;;2.38;;
47778;SDS011;33538;48.432;11.350;2023-06-04T11:37:13;5.68;;;2.50;;
47778;SDS011;33538;48.432;11.350;2023-06-04T11:39:40;4.50;;;2.50;;
47778;SDS011;33538;48.432;11.350;2023-06-04T11:42:09;3.78;;;2.40;;
47778;SDS011;33538;48.432;11.350;2023-06-04T11:44:36;2.53;;;1.98;;
47778;SDS011;33538;48.432;11.350;2023-06-04T11:47:04;3.22;;;2.33;;
47778;SDS011;33538;48.432;11.350;2023-06-04T11:49:33;3.85;;;2.20;;
47778;SDS011;33538;48.432;11.350;2023-06-04T11:52:02;5.10;;;2.78;;
47778;SDS011;33538;48.432;11.350;2023-06-04T11:54:30;3.50;;;2.45;;
47778;SDS011;33538;48.432;11.350;2023-06-04T11:56:58;4.13;;;2.17;;
47778;SDS011;33538;48.432;11.350;2023-06-04T11:59:27;4.85;;;2.55;;
47778;SDS011;33538;48.432;11.350;2023-06-04T12:01:54;4.30;;;2.65;;
47778;SDS011;33538;48.432;11.350;2023-06-04T12:04:21;4.10;;;2.85;;
47778;SDS011;33538;48.432;11.350;2023-06-04T12:06:51;4.45;;;2.22;;
47778;SDS011;33538;48.432;11.350;2023-06-04T12:09:21;2.88;;;1.90;;
47778;SDS011;33538;48.432;11.350;2023-06-04T12:11:48;3.45;;;2.55;;
47778;SDS011;33538;48.432;11.350;2023-06-04T12:14:15;3.50;;;2.40;;
47778;SDS011;33538;48.432;11.350;2023-06-04T12:16:44;5.07;;;2.47;;
47778;SDS011;33538;48.432;11.350;2023-06-04T12:19:20;5.95;;;2.47;;
47778;SDS011;33538;48.432;11.350;2023-06-04T12:21:58;4.28;;;2.47;;
47778;SDS011;33538;48.432;11.350;2023-06-04T12:24:25;4.85;;;2.30;;
47778;SDS011;33538;48.432;11.350;2023-06-04T12:27:00;5.55;;;2.25;;
47778;SDS011;33538;48.432;11.350;2023-06-04T12:29:28;3.20;;;1.75;;
47778;SDS011;33538;48.432;11.350;2023-06-04T12:32:02;6.05;;;2.33;;
47778;SDS011;33538;48.432;11.350;2023-06-04T12:34:30;8.18;;;2.70;;
47778;SDS011;33538;48.432;11.350;2023-06-04T12:36:57;4.50;;;2.28;;
47778;SDS011;33538;48.432;11.350;2023-06-04T12:39:24;3.58;;;2.20;;
47778;SDS011;33538;48.432;11.350;2023-06-04T12:41:51;3.15;;;2.03;;
47778;SDS011;33538;48.432;11.350;2023-06-04T12:44:17;3.55;;;2.15;;
47778;SDS011;33538;48.432;11.350;2023-06-04T12:46:44;3.03;;;2.30;;
47778;SDS011;33538;48.432;11.350;2023-06-04T12:49:13;2.83;;;2.20;;
47778;SDS011;33538;48.432;11.350;2023-06-04T12:51:39;2.90;;;2.00;;
47778;SDS011;33538;48.432;11.350;2023-06-04T12:54:06;3.22;;;2.15;;
47778;SDS011;33538;48.432;11.350;2023-06-04T12:56:33;4.93;;;2.85;;
47778;SDS011;33538;48.432;11.350;2023-06-04T12:59:01;2.60;;;1.92;;
47778;SDS011;33538;48.432;11.350;2023-06-04T13:01:28;2.65;;;2.15;;
47778;SDS011;33538;48.432;11.350;2023-06-04T13:03:55;5.10;;;2.50;;
47778;SDS011;33538;48.432;11.350;2023-06-04T13:06:23;4.13;;;2.42;;
47778;SDS011;33538;48.432;11.350;2023-06-04T13:08:50;7.25;;;2.63;;
47778;SDS011;33538;48.432;11.350;2023-06-04T13:11:17;3.53;;;2.35;;
47778;SDS011;33538;48.432;11.350;2023-06-04T13:13:44;4.07;;;2.78;;
47778;SDS011;33538;48.432;11.350;2023-06-04T13:16:11;4.38;;;2.50;;
47778;SDS011;33538;48.432;11.350;2023-06-04T13:18:37;5.25;;;3.10;;
47778;SDS011;33538;48.432;11.350;2023-06-04T13:21:05;5.13;;;2.75;;
47778;SDS011;33538;48.432;11.350;2023-06-04T13:23:33;4.13;;;2.78;;
47778;SDS011;33538;48.432;11.350;2023-06-04T13:26:15;4.80;;;2.60;;
47778;SDS011;33538;48.432;11.350;2023-06-04T13:28:42;3.92;;;2.15;;
47778;SDS011;33538;48.432;11.350;2023-06-04T13:31:09;4.63;;;2.30;;
47778;SDS011;33538;48.432;11.350;2023-06-04T13:33:36;4.97;;;2.35;;
47778;SDS011;33538;48.432;11.350;2023-06-04T13:36:03;3.83;;;2.40;;
47778;SDS011;33538;48.432;11.350;2023-06-04T13:38:30;4.10;;;2.10;;
47778;SDS011;33538;48.432;11.350;2023-06-04T13:40:58;2.67;;;1.90;;
47778;SDS011;33538;48.432;11.350;2023-06-04T13:43:25;3.83;;;2.58;;
47778;SDS011;33538;48.432;11.350;2023-06-04T13:45:52;4.07;;;2.33;;
47778;SDS011;33538;48.432;11.350;2023-06-04T13:48:19;3.03;;;2.28;;
47778;SDS011;33538;48.432;11.350;2023-06-04T13:50:46;2.38;;;2.00;;
47778;SDS011;33538;48.432;11.350;2023-06-04T13:53:13;7.25;;;2.65;;
47778;SDS011;33538;48.432;11.350;2023-06-04T13:55:39;3.17;;;2.30;;
47778;SDS011;33538;48.432;11.350;2023-06-04T13:58:08;5.82;;;2.30;;
47778;SDS011;33538;48.432;11.350;2023-06-04T14:00:34;3.63;;;2.50;;
47778;SDS011;33538;48.432;11.350;2023-06-04T14:03:01;3.78;;;2.70;;
47778;SDS011;33538;48.432;11.350;2023-06-04T14:05:28;3.75;;;2.30;;
47778;SDS011;33538;48.432;11.350;2023-06-04T14:07:55;8.88;;;2.70;;
47778;SDS011;33538;48.432;11.350;2023-06-04T14:10:22;5.53;;;2.67;;
47778;SDS011;33538;48.432;11.350;2023-06-04T14:12:49;5.32;;;2.40;;
47778;SDS011;33538;48.432;11.350;2023-06-04T14:15:17;5.18;;;2.40;;
47778;SDS011;33538;48.432;11.350;2023-06-04T14:17:44;5.70;;;2.67;;
47778;SDS011;33538;48.432;11.350;2023-06-04T14:20:11;6.40;;;2.60;;
47778;SDS011;33538;48.432;11.350;2023-06-04T14:22:38;4.72;;;2.65;;
47778;SDS011;33538;48.432;11.350;2023-06-04T14:25:05;4.20;;;2.28;;
47778;SDS011;33538;48.432;11.350;2023-06-04T14:27:33;3.53;;;2.47;;
47778;SDS011;33538;48.432;11.350;2023-06-04T14:30:01;4.45;;;2.50;;
47778;SDS011;33538;48.432;11.350;2023-06-04T14:32:29;3.65;;;2.50;;
47778;SDS011;33538;48.432;11.350;2023-06-04T14:34:56;5.22;;;2.65;;